createdAt,value
2022-12-04T00:00:13.207Z,309.63
2022-12-04T00:02:41.084Z,286.83
2022-12-04T00:05:09.965Z,286.67
2022-12-04T00:07:36.858Z,297.55
2022-12-04T00:10:04.338Z,330.77
2022-12-04T00:12:30.985Z,288.38
2022-12-04T00:15:27.543Z,405.98
2022-12-04T00:17:48.039Z,302.25
2022-12-04T00:20:14.806Z,346.83
2022-12-04T00:22:41.363Z,328.13
2022-12-04T00:25:08.524Z,300.30
2022-12-04T00:27:35.115Z,254.27
2022-12-04T00:30:02.032Z,359.77
2022-12-04T00:32:28.623Z,249.30
2022-12-04T00:34:55.255Z,272.05
2022-12-04T00:37:21.815Z,317.83
2022-12-04T00:39:48.529Z,350.25
2022-12-04T00:42:15.444Z,275.73
2022-12-04T00:44:42.136Z,379.98
2022-12-04T00:47:12.146Z,295.17
2022-12-04T00:49:38.824Z,275.25
2022-12-04T00:52:05.615Z,279.75
2022-12-04T00:54:32.304Z,268.05
2022-12-04T00:56:58.832Z,237.65
2022-12-04T00:59:25.469Z,330.80
2022-12-04T01:01:52.097Z,301.35
2022-12-04T01:04:18.799Z,274.27
2022-12-04T01:06:46.827Z,270.55
2022-12-04T01:09:13.504Z,245.90
2022-12-04T01:11:40.163Z,361.90
2022-12-04T01:14:06.984Z,336.48
2022-12-04T01:16:36.677Z,415.50
2022-12-04T01:19:05.227Z,376.15
2022-12-04T01:21:31.934Z,350.50
2022-12-04T01:23:59.773Z,320.27
2022-12-04T01:26:27.270Z,241.45
2022-12-04T01:31:21.526Z,368.45
2022-12-04T01:33:49.235Z,364.08
2022-12-04T01:36:22.852Z,399.65
2022-12-04T01:38:49.947Z,396.35
2022-12-04T01:41:18.953Z,456.27
2022-12-04T01:46:12.219Z,362.95
2022-12-04T01:48:53.896Z,381.13
2022-12-04T01:51:27.188Z,244.23
2022-12-04T01:53:59.290Z,389.88
2022-12-04T01:56:33.580Z,325.35
2022-12-04T01:59:02.967Z,336.70
2022-12-04T02:01:35.336Z,366.65
2022-12-04T02:04:03.321Z,413.85
2022-12-04T02:06:29.891Z,328.40
2022-12-04T02:08:56.539Z,354.48
2022-12-04T02:12:02.383Z,385.27
2022-12-04T02:14:38.447Z,407.42
2022-12-04T02:17:10.336Z,471.55
2022-12-04T02:20:14.371Z,419.38
2022-12-04T02:23:05.959Z,371.38
2022-12-04T02:25:44.307Z,369.67
2022-12-04T02:28:43.384Z,574.70
2022-12-04T02:31:17.018Z,491.35
2022-12-04T02:34:21.954Z,371.20
2022-12-04T02:36:59.007Z,313.55
2022-12-04T02:39:36.195Z,420.15
2022-12-04T02:42:06.311Z,421.58
2022-12-04T02:47:10.676Z,353.90
2022-12-04T02:49:44.498Z,377.00
2022-12-04T02:52:15.432Z,301.90
2022-12-04T02:54:54.495Z,344.25
2022-12-04T02:57:29.972Z,356.50
2022-12-04T02:59:58.721Z,385.27
2022-12-04T03:02:40.499Z,436.40
2022-12-04T03:05:15.672Z,412.85
2022-12-04T03:07:52.308Z,384.38
2022-12-04T03:10:24.820Z,296.88
2022-12-04T03:12:58.424Z,260.17
2022-12-04T03:16:03.804Z,334.10
2022-12-04T03:18:39.902Z,274.00
2022-12-04T03:21:29.913Z,209.93
2022-12-04T03:24:04.615Z,329.15
2022-12-04T03:26:42.226Z,392.70
2022-12-04T03:29:22.540Z,297.40
2022-12-04T03:31:55.814Z,350.02
2022-12-04T03:34:32.488Z,504.27
2022-12-04T03:37:08.026Z,344.92
2022-12-04T03:40:00.650Z,330.25
2022-12-04T03:45:10.663Z,310.83
2022-12-04T03:47:46.036Z,323.73
2022-12-04T03:50:24.139Z,332.63
2022-12-04T03:53:00.388Z,256.73
2022-12-04T03:55:41.475Z,339.95
2022-12-04T03:58:14.125Z,336.13
2022-12-04T04:00:43.134Z,391.15
2022-12-04T04:03:16.195Z,414.33
2022-12-04T04:05:47.437Z,337.90
2022-12-04T04:08:29.895Z,498.52
2022-12-04T04:11:07.944Z,363.20
2022-12-04T04:14:11.950Z,378.58
2022-12-04T04:17:01.683Z,386.20
2022-12-04T04:19:49.461Z,406.25
2022-12-04T04:22:36.721Z,435.08
2022-12-04T04:25:09.059Z,420.45
2022-12-04T04:30:02.259Z,288.73
2022-12-04T04:32:37.941Z,393.52
2022-12-04T04:35:11.097Z,415.40
2022-12-04T04:38:01.684Z,375.83
2022-12-04T04:40:41.417Z,263.85
2022-12-04T04:43:08.013Z,232.07
2022-12-04T04:45:40.737Z,231.63
2022-12-04T04:48:15.245Z,333.42
2022-12-04T04:50:43.195Z,296.17
2022-12-04T04:53:15.466Z,230.50
2022-12-04T04:55:42.567Z,304.35
2022-12-04T04:58:11.974Z,269.38
2022-12-04T05:00:39.410Z,207.45
2022-12-04T05:03:06.512Z,246.57
2022-12-04T05:05:33.195Z,248.65
2022-12-04T05:07:59.812Z,236.40
2022-12-04T05:10:26.435Z,214.98
2022-12-04T05:12:53.011Z,265.60
2022-12-04T05:15:19.610Z,245.52
2022-12-04T05:17:46.143Z,223.75
2022-12-04T05:20:12.911Z,241.25
2022-12-04T05:22:39.667Z,254.38
2022-12-04T05:25:06.954Z,221.05
2022-12-04T05:27:34.304Z,184.68
2022-12-04T05:30:01.079Z,226.95
2022-12-04T05:32:29.156Z,213.57
2022-12-04T05:34:57.039Z,192.45
2022-12-04T05:37:24.189Z,279.65
2022-12-04T05:39:50.831Z,241.85
2022-12-04T05:42:17.355Z,234.40
2022-12-04T05:44:44.200Z,259.90
2022-12-04T05:47:11.078Z,259.38
2022-12-04T05:49:37.747Z,274.75
2022-12-04T05:52:05.689Z,216.70
2022-12-04T05:54:32.383Z,295.25
2022-12-04T05:56:59.384Z,247.40
2022-12-04T05:59:26.140Z,226.55
2022-12-04T06:01:53.019Z,205.95
2022-12-04T06:06:44.182Z,252.23
2022-12-04T06:09:11.795Z,198.27
2022-12-04T06:11:40.428Z,198.75
2022-12-04T06:14:10.509Z,215.23
2022-12-04T06:16:39.892Z,223.90
2022-12-04T06:19:18.621Z,199.63
2022-12-04T06:21:48.710Z,215.02
2022-12-04T06:24:20.700Z,225.32
2022-12-04T06:27:18.969Z,312.17
2022-12-04T06:29:34.723Z,281.42
2022-12-04T06:32:01.450Z,268.95
2022-12-04T06:34:28.173Z,210.80
2022-12-04T06:36:55.346Z,255.75
2022-12-04T06:39:22.112Z,212.52
2022-12-04T06:41:48.716Z,194.70
2022-12-04T06:44:16.473Z,213.30
2022-12-04T06:46:46.935Z,189.13
2022-12-04T06:49:14.181Z,191.80
2022-12-04T06:51:41.117Z,182.57
2022-12-04T06:54:08.965Z,199.57
2022-12-04T06:56:35.852Z,205.50
2022-12-04T06:59:04.298Z,182.68
2022-12-04T07:01:33.756Z,186.23
2022-12-04T07:04:03.355Z,225.52
2022-12-04T07:06:32.952Z,172.07
2022-12-04T07:09:00.940Z,148.25
2022-12-04T07:11:27.668Z,162.48
2022-12-04T07:13:55.895Z,149.80
2022-12-04T07:16:24.095Z,160.82
2022-12-04T07:18:53.288Z,166.05
2022-12-04T07:21:22.742Z,147.82
2022-12-04T07:23:56.221Z,154.52
2022-12-04T07:26:23.984Z,166.68
2022-12-04T07:28:50.598Z,159.73
2022-12-04T07:31:19.541Z,135.00
2022-12-04T07:33:47.454Z,159.25
2022-12-04T07:36:19.520Z,145.00
2022-12-04T07:41:13.325Z,171.27
2022-12-04T07:43:40.784Z,183.18
2022-12-04T07:46:14.475Z,151.88
2022-12-04T07:48:41.291Z,129.05
2022-12-04T07:51:14.214Z,153.43
2022-12-04T07:53:42.086Z,151.57
2022-12-04T07:56:10.139Z,156.85
2022-12-04T07:58:37.123Z,166.05
2022-12-04T08:01:15.692Z,141.85
2022-12-04T08:03:47.968Z,152.88
2022-12-04T08:06:19.664Z,171.77
2022-12-04T08:08:47.234Z,156.00
2022-12-04T08:11:17.625Z,148.63
2022-12-04T08:13:45.282Z,169.07
2022-12-04T08:16:13.328Z,158.27
2022-12-04T08:18:41.522Z,143.40
2022-12-04T08:21:11.469Z,138.45
2022-12-04T08:23:39.204Z,159.95
2022-12-04T08:26:07.172Z,145.70
2022-12-04T08:28:36.926Z,144.63
2022-12-04T08:31:05.744Z,146.98
2022-12-04T08:33:32.913Z,165.38
2022-12-04T08:35:59.689Z,165.02
2022-12-04T08:38:26.548Z,159.05
2022-12-04T08:40:53.103Z,161.27
2022-12-04T08:43:19.787Z,155.15
2022-12-04T08:46:01.653Z,146.05
2022-12-04T08:48:29.018Z,132.48
2022-12-04T08:50:58.772Z,149.02
2022-12-04T08:53:26.496Z,137.93
2022-12-04T08:55:53.183Z,147.75
2022-12-04T08:58:20.086Z,156.38
2022-12-04T09:00:46.904Z,123.03
2022-12-04T09:03:19.736Z,140.90
2022-12-04T09:05:46.816Z,171.25
2022-12-04T09:08:15.756Z,156.02
2022-12-04T09:10:42.746Z,162.73
2022-12-04T09:13:09.718Z,139.88
2022-12-04T09:15:40.064Z,128.80
2022-12-04T09:18:07.898Z,140.90
2022-12-04T09:20:35.166Z,150.07
2022-12-04T09:23:04.939Z,135.52
2022-12-04T09:25:36.331Z,162.23
2022-12-04T09:28:03.348Z,138.40
2022-12-04T09:30:29.962Z,133.25
2022-12-04T09:32:56.718Z,150.73
2022-12-04T09:35:23.255Z,141.45
2022-12-04T09:37:49.892Z,136.80
2022-12-04T09:41:09.096Z,133.93
2022-12-04T09:43:56.023Z,118.50
2022-12-04T09:46:27.365Z,131.98
2022-12-04T09:48:57.431Z,148.07
2022-12-04T09:51:26.252Z,137.93
2022-12-04T09:54:26.926Z,129.20
2022-12-04T09:57:06.545Z,130.48
2022-12-04T09:59:33.347Z,126.97
2022-12-04T10:02:23.555Z,131.88
2022-12-04T10:04:50.311Z,125.18
2022-12-04T10:07:22.845Z,125.50
2022-12-04T10:10:05.783Z,135.13
2022-12-04T10:12:35.011Z,127.38
2022-12-04T10:15:01.808Z,115.70
2022-12-04T10:18:04.490Z,140.32
2022-12-04T10:20:46.452Z,124.13
2022-12-04T10:23:28.258Z,140.85
2022-12-04T10:25:55.359Z,150.32
2022-12-04T10:28:31.910Z,139.90
2022-12-04T10:31:02.120Z,118.75
2022-12-04T10:33:37.967Z,117.80
2022-12-04T10:36:05.383Z,143.13
2022-12-04T10:39:02.648Z,136.80
2022-12-04T10:41:40.594Z,121.60
2022-12-04T10:44:19.446Z,122.15
2022-12-04T10:46:47.033Z,121.88
2022-12-04T10:49:25.737Z,106.20
2022-12-04T10:51:53.042Z,143.07
2022-12-04T10:54:26.900Z,122.30
2022-12-04T10:57:02.099Z,119.85
2022-12-04T10:59:30.223Z,129.63
2022-12-04T11:02:16.473Z,109.50
2022-12-04T11:04:43.591Z,117.38
2022-12-04T11:07:20.898Z,112.65
2022-12-04T11:10:32.777Z,118.20
2022-12-04T11:15:15.163Z,129.77
2022-12-04T11:17:41.809Z,143.57
2022-12-04T11:20:16.601Z,123.25
2022-12-04T11:22:51.203Z,135.07
2022-12-04T11:25:19.946Z,120.40
2022-12-04T11:27:50.494Z,118.95
2022-12-04T11:30:25.133Z,103.47
2022-12-04T11:32:53.622Z,102.00
2022-12-04T11:35:29.247Z,101.30
2022-12-04T11:38:07.231Z,85.38
2022-12-04T11:40:34.674Z,105.68
2022-12-04T11:43:10.063Z,102.15
2022-12-04T11:45:36.919Z,101.50
2022-12-04T11:48:13.509Z,108.32
2022-12-04T11:51:14.656Z,99.15
2022-12-04T11:53:57.750Z,104.25
2022-12-04T11:56:45.560Z,94.03
2022-12-04T11:59:36.943Z,92.15
2022-12-04T12:02:12.432Z,113.35
2022-12-04T12:04:42.424Z,77.32
2022-12-04T12:07:25.618Z,93.68
2022-12-04T12:10:03.038Z,88.28
2022-12-04T12:12:50.938Z,89.07
2022-12-04T12:15:30.087Z,84.90
2022-12-04T12:18:32.095Z,89.53
2022-12-04T12:21:23.229Z,78.03
2022-12-04T12:24:20.641Z,82.68
2022-12-04T12:27:21.383Z,86.55
2022-12-04T12:30:17.787Z,95.30
2022-12-04T12:32:47.266Z,88.82
2022-12-04T12:35:45.180Z,79.32
2022-12-04T12:38:14.672Z,75.20
2022-12-04T12:40:50.457Z,74.28
2022-12-04T12:43:27.568Z,81.53
2022-12-04T12:46:00.576Z,80.80
2022-12-04T12:48:40.242Z,77.05
2022-12-04T12:51:31.992Z,81.13
2022-12-04T12:54:15.783Z,66.47
2022-12-04T12:56:50.056Z,71.15
2022-12-04T12:59:20.923Z,63.22
2022-12-04T13:02:00.316Z,76.60
2022-12-04T13:04:39.678Z,86.43
2022-12-04T13:07:18.416Z,91.13
2022-12-04T13:09:50.340Z,87.80
2022-12-04T13:12:19.444Z,79.97
2022-12-04T13:14:49.023Z,77.45
2022-12-04T13:17:19.576Z,84.63
2022-12-04T13:19:52.925Z,80.63
2022-12-04T13:22:22.320Z,84.60
2022-12-04T13:25:00.944Z,94.55
2022-12-04T13:28:00.079Z,78.68
2022-12-04T13:30:50.579Z,81.93
2022-12-04T13:33:32.351Z,74.43
2022-12-04T13:36:40.495Z,77.20
2022-12-04T13:39:25.344Z,77.45
2022-12-04T13:42:02.765Z,88.75
2022-12-04T13:44:31.618Z,76.45
2022-12-04T13:47:04.929Z,81.28
2022-12-04T13:49:37.446Z,70.43
2022-12-04T13:52:23.961Z,75.35
2022-12-04T13:55:00.266Z,78.43
2022-12-04T13:57:28.211Z,74.35
2022-12-04T14:00:29.406Z,76.50
2022-12-04T14:02:59.199Z,93.05
2022-12-04T14:05:29.992Z,80.25
2022-12-04T14:08:19.939Z,76.10
2022-12-04T14:11:06.019Z,84.57
2022-12-04T14:13:50.386Z,77.95
2022-12-04T14:16:57.027Z,87.78
2022-12-04T14:19:39.389Z,81.18
2022-12-04T14:22:24.027Z,91.00
2022-12-04T14:24:50.665Z,86.60
2022-12-04T14:27:53.641Z,91.03
2022-12-04T14:30:31.536Z,104.47
2022-12-04T14:33:18.110Z,98.03
2022-12-04T14:35:55.364Z,94.13
2022-12-04T14:38:23.427Z,82.10
2022-12-04T14:40:53.640Z,76.03
2022-12-04T14:43:23.695Z,68.60
2022-12-04T14:46:14.766Z,77.55
2022-12-04T14:48:47.735Z,66.55
2022-12-04T14:51:29.227Z,69.70
2022-12-04T14:54:00.498Z,60.13
2022-12-04T14:57:17.198Z,72.50
2022-12-04T14:59:55.134Z,79.32
2022-12-04T15:02:28.651Z,76.82
2022-12-04T15:04:57.221Z,122.53
2022-12-04T15:07:28.268Z,76.75
2022-12-04T15:10:16.877Z,82.07
2022-12-04T15:12:54.616Z,87.13
2022-12-04T15:15:25.712Z,79.65
2022-12-04T15:18:17.261Z,84.20
2022-12-04T15:20:49.756Z,99.03
2022-12-04T15:23:26.588Z,91.53
2022-12-04T15:25:55.920Z,90.63
2022-12-04T15:28:33.129Z,95.50
2022-12-04T15:31:03.159Z,78.57
2022-12-04T15:33:34.598Z,86.22
2022-12-04T15:36:30.620Z,86.45
2022-12-04T15:38:57.292Z,78.60
2022-12-04T15:41:36.272Z,83.40
2022-12-04T15:44:40.195Z,79.72
2022-12-04T15:47:19.428Z,68.53
2022-12-04T15:49:46.299Z,77.32
2022-12-04T15:52:12.839Z,66.70
2022-12-04T15:55:03.043Z,57.03
2022-12-04T15:57:33.714Z,64.03
2022-12-04T16:00:05.124Z,70.15
2022-12-04T16:02:40.234Z,74.40
2022-12-04T16:05:27.021Z,69.40
2022-12-04T16:07:58.389Z,66.95
2022-12-04T16:10:28.543Z,58.07
2022-12-04T16:12:57.688Z,70.85
2022-12-04T16:15:27.047Z,86.72
2022-12-04T16:17:54.032Z,85.07
2022-12-04T16:20:20.777Z,84.10
2022-12-04T16:22:53.023Z,70.05
2022-12-04T16:27:46.123Z,82.25
2022-12-04T16:30:13.954Z,80.07
2022-12-04T16:32:40.566Z,77.82
2022-12-04T16:35:07.601Z,74.68
2022-12-04T16:37:34.214Z,85.68
2022-12-04T16:40:06.371Z,84.53
2022-12-04T16:42:32.942Z,82.90
2022-12-04T16:44:59.789Z,71.13
2022-12-04T16:47:26.699Z,82.80
2022-12-04T16:49:53.408Z,80.03
2022-12-04T16:52:20.976Z,78.43
2022-12-04T16:54:47.922Z,84.82
2022-12-04T16:57:14.484Z,78.78
2022-12-04T16:59:41.019Z,81.60
2022-12-04T17:02:26.156Z,78.40
2022-12-04T17:04:57.270Z,75.47
2022-12-04T17:07:25.106Z,85.90
2022-12-04T17:09:51.687Z,81.47
2022-12-04T17:12:18.286Z,87.03
2022-12-04T17:14:45.155Z,91.00
2022-12-04T17:17:11.753Z,91.30
2022-12-04T17:19:38.239Z,80.57
2022-12-04T17:22:04.823Z,85.85
2022-12-04T17:24:31.474Z,96.13
2022-12-04T17:26:58.264Z,90.60
2022-12-04T17:29:24.818Z,90.28
2022-12-04T17:31:51.500Z,90.05
2022-12-04T17:34:18.087Z,80.38
2022-12-04T17:36:44.728Z,82.85
2022-12-04T17:39:13.571Z,78.43
2022-12-04T17:41:40.150Z,80.88
2022-12-04T17:44:06.689Z,87.55
2022-12-04T17:46:33.665Z,94.63
2022-12-04T17:49:04.053Z,92.97
2022-12-04T17:51:34.963Z,84.55
2022-12-04T17:54:01.667Z,88.35
2022-12-04T17:56:28.347Z,79.32
2022-12-04T17:58:55.188Z,90.90
2022-12-04T18:01:27.603Z,67.05
2022-12-04T18:04:03.942Z,89.43
2022-12-04T18:06:34.020Z,89.38
2022-12-04T18:09:01.277Z,89.40
2022-12-04T18:11:30.256Z,97.82
2022-12-04T18:14:00.673Z,93.90
2022-12-04T18:16:29.027Z,94.95
2022-12-04T18:18:57.305Z,88.25
2022-12-04T18:21:24.274Z,97.57
2022-12-04T18:23:51.394Z,107.13
2022-12-04T18:26:20.983Z,90.70
2022-12-04T18:28:49.745Z,103.25
2022-12-04T18:31:20.003Z,94.93
2022-12-04T18:33:47.668Z,89.45
2022-12-04T18:41:14.340Z,99.57
2022-12-04T18:43:43.267Z,94.07
2022-12-04T18:46:12.383Z,90.93
2022-12-04T18:48:40.019Z,94.30
2022-12-04T18:51:26.777Z,96.07
2022-12-04T18:53:58.260Z,94.03
2022-12-04T18:56:25.522Z,103.70
2022-12-04T18:59:00.597Z,103.28
2022-12-04T19:01:28.135Z,100.07
2022-12-04T19:03:59.817Z,99.43
2022-12-04T19:06:30.944Z,97.05
2022-12-04T19:08:59.919Z,84.65
2022-12-04T19:11:27.470Z,95.03
2022-12-04T19:13:54.536Z,90.95
2022-12-04T19:16:21.332Z,97.90
2022-12-04T19:18:48.116Z,101.18
2022-12-04T19:21:15.503Z,82.45
2022-12-04T19:23:43.422Z,88.75
2022-12-04T19:26:12.290Z,95.15
2022-12-04T19:28:39.190Z,100.78
2022-12-04T19:31:14.770Z,102.38
2022-12-04T19:33:42.053Z,93.32
2022-12-04T19:36:10.405Z,114.03
2022-12-04T19:38:37.442Z,104.18
2022-12-04T19:41:10.379Z,104.45
2022-12-04T19:43:38.752Z,84.53
2022-12-04T19:46:07.068Z,102.53
2022-12-04T19:48:34.716Z,103.20
2022-12-04T19:51:22.082Z,99.60
2022-12-04T19:53:49.628Z,105.63
2022-12-04T19:56:24.064Z,89.60
2022-12-04T19:58:56.092Z,105.70
2022-12-04T20:01:25.331Z,101.85
2022-12-04T20:03:52.913Z,104.57
2022-12-04T20:06:21.933Z,94.88
2022-12-04T20:09:00.539Z,95.85
2022-12-04T20:11:29.201Z,92.18
2022-12-04T20:13:57.252Z,102.90
2022-12-04T20:16:26.004Z,98.05
2022-12-04T20:18:53.341Z,102.65
2022-12-04T20:21:21.198Z,117.53
2022-12-04T20:23:50.056Z,100.22
2022-12-04T20:26:20.540Z,110.80
2022-12-04T20:28:47.797Z,116.47
2022-12-04T20:31:23.793Z,102.13
2022-12-04T20:33:52.850Z,91.03
2022-12-04T20:36:21.828Z,105.15
2022-12-04T20:38:49.610Z,79.18
2022-12-04T20:41:20.273Z,103.90
2022-12-04T20:43:47.659Z,96.13
2022-12-04T20:46:20.266Z,101.72
2022-12-04T20:48:49.245Z,106.30
2022-12-04T20:51:21.139Z,120.78
2022-12-04T20:53:49.820Z,130.75
2022-12-04T20:56:17.380Z,107.07
2022-12-04T20:58:44.413Z,106.68
2022-12-04T21:01:14.235Z,127.85
2022-12-04T21:03:41.127Z,105.30
2022-12-04T21:06:17.790Z,124.43
2022-12-04T21:08:55.909Z,107.93
2022-12-04T21:11:34.743Z,99.03
2022-12-04T21:14:21.933Z,110.00
2022-12-04T21:16:48.956Z,104.18
2022-12-04T21:19:17.992Z,108.97
2022-12-04T21:21:45.485Z,111.78
2022-12-04T21:24:17.790Z,97.22
2022-12-04T21:26:45.381Z,104.55
2022-12-04T21:29:12.068Z,118.80
2022-12-04T21:33:59.008Z,112.03
2022-12-04T21:36:26.699Z,121.37
2022-12-04T21:38:53.568Z,124.07
2022-12-04T21:41:38.786Z,104.53
2022-12-04T21:44:14.132Z,112.50
2022-12-04T21:46:40.898Z,111.90
2022-12-04T21:49:07.806Z,114.10
2022-12-04T21:54:23.151Z,105.95
2022-12-04T21:56:49.788Z,137.32
2022-12-04T21:59:16.746Z,116.20
2022-12-04T22:01:43.842Z,107.32
2022-12-04T22:04:10.594Z,117.88
2022-12-04T22:06:37.889Z,103.30
2022-12-04T22:09:08.042Z,111.05
2022-12-04T22:11:35.144Z,106.85
2022-12-04T22:14:01.768Z,118.07
2022-12-04T22:16:30.981Z,124.30
2022-12-04T22:18:59.280Z,127.18
2022-12-04T22:21:27.507Z,116.75
2022-12-04T22:26:25.142Z,115.95
2022-12-04T22:28:52.105Z,133.55
2022-12-04T22:31:20.435Z,123.75
2022-12-04T22:33:49.522Z,110.28
2022-12-04T22:36:19.746Z,120.95
2022-12-04T22:39:08.101Z,105.40
2022-12-04T22:41:34.994Z,106.97
2022-12-04T22:44:01.527Z,112.60
2022-12-04T22:46:28.253Z,109.72
2022-12-04T22:48:54.892Z,110.63
2022-12-04T22:51:22.408Z,115.22
2022-12-04T22:53:52.070Z,118.43
2022-12-04T22:56:30.700Z,100.85
2022-12-04T22:58:58.648Z,110.82
2022-12-04T23:01:27.587Z,112.25
2022-12-04T23:03:55.119Z,122.13
2022-12-04T23:06:24.515Z,121.07
2022-12-04T23:08:59.109Z,122.90
2022-12-04T23:11:26.855Z,107.43
2022-12-04T23:13:56.421Z,131.20
2022-12-04T23:16:24.444Z,111.03
2022-12-04T23:18:51.206Z,114.55
2022-12-04T23:21:19.270Z,120.13
2022-12-04T23:23:47.109Z,126.07
2022-12-04T23:26:19.762Z,97.38
2022-12-04T23:28:47.044Z,117.30
2022-12-04T23:31:14.410Z,99.95
2022-12-04T23:33:41.879Z,108.95
2022-12-04T23:36:10.791Z,112.75
2022-12-04T23:38:38.778Z,131.50
2022-12-04T23:43:34.670Z,137.98
2022-12-04T23:46:05.790Z,142.95
2022-12-04T23:48:35.730Z,111.70
2022-12-04T23:51:02.404Z,159.05
2022-12-04T23:53:29.639Z,128.20
2022-12-04T23:56:12.104Z,126.72
